Time;durP1;ratioP1;P1;durP2;ratioP2;P2;SDS_P1;SDS_P2;PMS_P1;PMS_P2;Temp;Humidity;BMP_temperature;BMP_pressure;BME280_temperature;BME280_humidity;BME280_pressure;Samples;Min_cycle;Max_cycle;Signal;HPM_P1;HPM_P2
2022/05/09 00:01:26;;;;;;;11.30;3.58;;;9.20;99.90;;;;;;5035722;28;20045;-64
2022/05/09 00:03:51;;;;;;;14.55;3.83;;;9.10;99.90;;;;;;5031417;28;20054;-61
2022/05/09 00:06:17;;;;;;;14.45;3.70;;;9.20;99.90;;;;;;5028360;28;20056;-63
2022/05/09 00:08:42;;;;;;;8.32;3.20;;;9.10;99.90;;;;;;5033527;28;20033;-62
2022/05/09 00:11:09;;;;;;;12.65;3.70;;;9.20;99.90;;;;;;5034965;28;20037;-64
2022/05/09 00:13:36;;;;;;;12.63;3.17;;;9.10;99.90;;;;;;5032055;28;20045;-62
2022/05/09 00:16:03;;;;;;;10.40;3.08;;;9.00;99.90;;;;;;5037421;28;20186;-62
2022/05/09 00:18:28;;;;;;;12.75;3.65;;;9.00;99.90;;;;;;5032583;28;20343;-62
2022/05/09 00:20:54;;;;;;;14.20;3.33;;;8.90;99.90;;;;;;5037338;28;20048;-62
2022/05/09 00:23:19;;;;;;;13.23;3.20;;;8.80;99.90;;;;;;5041416;28;20029;-63
2022/05/09 00:25:45;;;;;;;12.65;3.58;;;8.80;99.90;;;;;;5042885;28;20037;-63
2022/05/09 00:28:10;;;;;;;15.77;4.03;;;8.80;99.90;;;;;;5032635;28;20041;-62
2022/05/09 00:30:36;;;;;;;13.63;3.75;;;8.90;99.90;;;;;;5041907;28;20073;-63
2022/05/09 00:33:02;;;;;;;11.02;3.50;;;8.90;99.90;;;;;;5038921;28;20061;-65
2022/05/09 00:35:28;;;;;;;10.25;3.88;;;8.80;99.90;;;;;;5040555;28;20079;-62
2022/05/09 00:37:53;;;;;;;13.50;3.85;;;8.80;99.90;;;;;;5035301;28;20032;-63
2022/05/09 00:40:20;;;;;;;11.95;3.25;;;8.80;99.90;;;;;;5037533;28;20034;-65
2022/05/09 00:42:48;;;;;;;21.10;4.70;;;8.80;99.90;;;;;;5040524;28;20040;-62
2022/05/09 00:45:14;;;;;;;10.02;3.28;;;8.80;99.90;;;;;;5032835;28;20038;-62
2022/05/09 00:47:41;;;;;;;12.05;3.30;;;8.80;99.90;;;;;;5038049;28;20079;-61
2022/05/09 00:50:10;;;;;;;11.65;3.65;;;8.80;99.90;;;;;;5040925;28;20045;-62
2022/05/09 00:52:36;;;;;;;11.55;3.42;;;8.80;99.90;;;;;;5044076;28;20050;-63
2022/05/09 00:55:11;;;;;;;14.10;3.95;;;8.80;99.90;;;;;;5034846;28;20103;-64
2022/05/09 00:58:05;;;;;;;13.75;4.03;;;8.70;99.90;;;;;;5039039;28;20033;-62
2022/05/09 01:00:31;;;;;;;13.02;3.42;;;8.70;99.90;;;;;;5031596;28;20384;-61
2022/05/09 01:03:01;;;;;;;11.95;3.60;;;8.60;99.90;;;;;;5030686;28;20045;-61
2022/05/09 01:05:30;;;;;;;11.55;3.42;;;8.60;99.90;;;;;;5033542;28;20555;-63
2022/05/09 01:07:56;;;;;;;12.57;3.47;;;8.60;99.90;;;;;;5036472;28;20040;-64
2022/05/09 01:10:26;;;;;;;10.68;3.60;;;8.60;99.90;;;;;;5032673;28;20064;-62
2022/05/09 01:12:52;;;;;;;11.48;3.50;;;8.50;99.90;;;;;;5044863;28;20344;-62
2022/05/09 01:15:18;;;;;;;12.20;3.50;;;8.50;99.90;;;;;;5036707;28;20156;-62
2022/05/09 01:17:47;;;;;;;13.63;3.92;;;8.50;99.90;;;;;;5032681;28;20483;-62
2022/05/09 01:20:13;;;;;;;14.73;3.80;;;8.50;99.90;;;;;;5038800;28;20533;-62
2022/05/09 01:22:41;;;;;;;10.90;3.78;;;8.40;99.90;;;;;;5037055;28;20049;-62
2022/05/09 01:25:11;;;;;;;11.80;3.97;;;8.40;99.90;;;;;;5043794;28;20033;-62
2022/05/09 01:27:40;;;;;;;13.43;3.72;;;8.40;99.90;;;;;;5037065;28;20184;-63
2022/05/09 01:30:29;;;;;;;11.05;3.72;;;8.50;99.90;;;;;;5039449;28;20853;-61
2022/05/09 01:33:07;;;;;;;13.27;3.72;;;8.40;99.90;;;;;;5043379;28;20057;-62
2022/05/09 01:36:06;;;;;;;14.07;3.80;;;8.40;99.90;;;;;;5038878;28;20121;-62
2022/05/09 01:38:48;;;;;;;15.98;3.85;;;8.40;99.90;;;;;;5027809;28;20049;-62
2022/05/09 01:41:13;;;;;;;17.40;3.90;;;8.30;99.90;;;;;;5043961;28;20048;-62
2022/05/09 01:43:45;;;;;;;12.90;4.07;;;8.30;99.90;;;;;;5043626;28;20051;-63
2022/05/09 01:46:18;;;;;;;12.10;3.67;;;8.20;99.90;;;;;;5031929;28;20091;-63
2022/05/09 01:51:29;;;;;;;13.27;3.83;;;8.20;99.90;;;;;;5039136;28;20045;-63
2022/05/09 01:53:55;;;;;;;12.52;3.97;;;8.20;99.90;;;;;;5035686;28;20403;-62
2022/05/09 01:56:33;;;;;;;16.10;3.65;;;8.10;99.90;;;;;;5038831;28;20148;-63
2022/05/09 01:59:00;;;;;;;10.77;3.45;;;8.20;99.90;;;;;;5037757;28;20046;-61
2022/05/09 02:01:28;;;;;;;9.98;3.35;;;8.10;99.90;;;;;;5039753;28;20049;-63
2022/05/09 02:03:54;;;;;;;12.98;3.50;;;8.10;99.90;;;;;;5030965;28;20049;-61
2022/05/09 02:06:21;;;;;;;11.27;3.67;;;8.00;99.90;;;;;;5040827;28;20037;-63
2022/05/09 02:08:47;;;;;;;13.40;3.85;;;8.00;99.90;;;;;;5038349;28;20410;-62
2022/05/09 02:11:13;;;;;;;11.90;3.65;;;8.00;99.90;;;;;;5044973;28;20126;-62
2022/05/09 02:13:39;;;;;;;9.38;3.10;;;7.90;99.90;;;;;;5038302;28;20099;-63
2022/05/09 02:16:05;;;;;;;12.10;3.65;;;7.90;99.90;;;;;;5037286;28;20513;-62
2022/05/09 02:18:32;;;;;;;15.02;3.58;;;7.90;99.90;;;;;;5035137;28;20114;-62
2022/05/09 02:20:58;;;;;;;11.10;3.83;;;7.90;99.90;;;;;;5036673;28;20406;-62
2022/05/09 02:23:23;;;;;;;11.52;3.58;;;7.80;99.90;;;;;;5032796;28;20064;-62
2022/05/09 02:25:49;;;;;;;12.27;3.40;;;7.80;99.90;;;;;;5029592;28;20072;-63
2022/05/09 02:28:15;;;;;;;10.48;3.58;;;7.80;99.90;;;;;;5037949;28;20029;-62
2022/05/09 02:30:41;;;;;;;9.35;3.47;;;7.70;99.90;;;;;;5036304;28;20207;-64
2022/05/09 02:33:08;;;;;;;9.90;3.45;;;7.70;99.90;;;;;;5035465;28;20077;-62
2022/05/09 02:35:36;;;;;;;14.07;4.40;;;7.60;99.90;;;;;;5032561;28;20124;-62
2022/05/09 02:38:02;;;;;;;12.23;4.57;;;7.60;99.90;;;;;;5041950;28;21826;-61
2022/05/09 02:40:28;;;;;;;14.55;3.88;;;7.60;99.90;;;;;;5039845;28;20044;-63
2022/05/09 02:42:54;;;;;;;11.50;3.83;;;7.60;99.90;;;;;;5035352;28;20084;-65
2022/05/09 02:45:20;;;;;;;10.90;3.70;;;7.60;99.90;;;;;;5035584;28;20152;-63
2022/05/09 02:47:46;;;;;;;12.63;3.95;;;7.50;99.90;;;;;;5035210;28;20061;-65
2022/05/09 02:50:13;;;;;;;11.02;4.10;;;7.50;99.90;;;;;;5040785;28;20045;-61
2022/05/09 02:52:38;;;;;;;10.27;3.72;;;7.50;99.90;;;;;;5034749;28;20065;-64
2022/05/09 02:55:06;;;;;;;12.18;3.55;;;7.50;99.90;;;;;;5035072;28;20051;-62
2022/05/09 02:57:32;;;;;;;9.25;3.75;;;7.50;99.90;;;;;;5035979;28;20045;-62
2022/05/09 02:59:57;;;;;;;11.60;3.67;;;7.40;99.90;;;;;;5036661;28;20130;-63
2022/05/09 03:02:23;;;;;;;13.57;4.00;;;7.40;99.90;;;;;;5034097;28;20079;-62
2022/05/09 03:04:49;;;;;;;11.95;4.20;;;7.40;99.90;;;;;;5043118;28;20275;-64
2022/05/09 03:07:16;;;;;;;12.10;3.42;;;7.40;99.90;;;;;;5028356;28;20037;-63
2022/05/09 03:09:44;;;;;;;14.45;4.15;;;7.30;99.90;;;;;;5033768;28;20877;-62
2022/05/09 03:12:11;;;;;;;13.15;4.10;;;7.30;99.90;;;;;;5043249;28;20069;-62
2022/05/09 03:14:37;;;;;;;15.40;4.43;;;7.30;99.90;;;;;;5042386;28;20052;-63
2022/05/09 03:17:05;;;;;;;14.05;4.10;;;7.30;99.90;;;;;;5038640;28;20117;-63
2022/05/09 03:19:30;;;;;;;12.70;3.97;;;7.30;99.90;;;;;;5037580;28;20042;-63
2022/05/09 03:21:56;;;;;;;11.20;3.60;;;7.20;99.90;;;;;;5040332;28;20096;-63
2022/05/09 03:24:22;;;;;;;11.73;4.43;;;7.20;99.90;;;;;;5034966;28;20334;-63
2022/05/09 03:26:49;;;;;;;14.73;4.03;;;7.20;99.90;;;;;;5041057;28;20091;-63
2022/05/09 03:29:16;;;;;;;10.60;4.00;;;7.20;99.90;;;;;;5039286;28;20041;-62
2022/05/09 03:31:42;;;;;;;14.85;4.63;;;7.20;99.90;;;;;;5043423;28;20175;-63
2022/05/09 03:34:07;;;;;;;13.60;3.97;;;7.20;99.90;;;;;;5034024;28;20175;-63
2022/05/09 03:36:33;;;;;;;13.90;4.72;;;7.20;99.90;;;;;;5043654;28;20521;-62
2022/05/09 03:38:59;;;;;;;12.13;4.03;;;7.20;99.90;;;;;;5039719;28;20041;-62
2022/05/09 03:41:25;;;;;;;14.35;4.65;;;7.10;99.90;;;;;;5037973;28;20037;-63
2022/05/09 03:43:51;;;;;;;11.68;4.32;;;7.10;99.90;;;;;;5038510;28;20049;-63
2022/05/09 03:46:17;;;;;;;11.68;4.13;;;7.10;99.90;;;;;;5031132;28;20045;-63
2022/05/09 03:48:42;;;;;;;14.13;4.32;;;7.10;99.90;;;;;;5045876;28;20045;-62
2022/05/09 03:51:08;;;;;;;11.40;4.28;;;7.10;99.90;;;;;;5036843;28;20045;-63
2022/05/09 03:53:34;;;;;;;15.52;5.57;;;7.10;99.90;;;;;;5033055;28;20061;-62
2022/05/09 03:56:00;;;;;;;10.38;4.25;;;7.10;99.90;;;;;;5037911;28;20044;-62
2022/05/09 03:58:26;;;;;;;13.23;4.55;;;7.00;99.90;;;;;;5038490;28;20049;-62
2022/05/09 04:00:52;;;;;;;12.20;4.30;;;7.00;99.90;;;;;;5037333;28;20037;-63
2022/05/09 04:03:18;;;;;;;13.60;4.53;;;7.00;99.90;;;;;;5034709;28;20052;-61
2022/05/09 04:05:43;;;;;;;14.48;4.18;;;7.00;99.90;;;;;;5037747;28;20037;-61
2022/05/09 04:08:16;;;;;;;13.48;4.70;;;6.90;99.90;;;;;;5036781;28;20041;-61
2022/05/09 04:10:43;;;;;;;13.57;4.50;;;7.00;99.90;;;;;;5038597;28;20137;-63
2022/05/09 04:13:09;;;;;;;11.52;4.18;;;6.90;99.90;;;;;;5030116;28;20497;-61
2022/05/09 04:18:21;;;;;;;9.50;4.18;;;6.90;99.90;;;;;;5033480;28;20053;-62
2022/05/09 04:20:49;;;;;;;11.68;4.20;;;6.90;99.90;;;;;;5042881;28;20094;-61
2022/05/09 04:23:15;;;;;;;13.32;4.10;;;6.90;99.90;;;;;;5034492;28;20051;-61
2022/05/09 04:25:42;;;;;;;13.70;4.88;;;7.00;99.90;;;;;;5035274;28;20398;-62
2022/05/09 04:28:08;;;;;;;12.30;3.83;;;7.00;99.90;;;;;;5032640;28;20357;-61
2022/05/09 04:30:36;;;;;;;12.80;4.45;;;7.00;99.90;;;;;;5037841;28;20045;-61
2022/05/09 04:33:04;;;;;;;13.55;5.13;;;7.00;99.90;;;;;;5033635;28;20107;-63
2022/05/09 04:35:31;;;;;;;13.32;4.18;;;7.10;99.90;;;;;;5040244;28;20433;-61
2022/05/09 04:37:57;;;;;;;10.45;4.10;;;7.10;99.90;;;;;;5043545;28;20095;-62
2022/05/09 04:40:31;;;;;;;12.77;5.22;;;7.10;99.90;;;;;;5040579;28;20049;-61
2022/05/09 04:42:57;;;;;;;14.18;5.20;;;7.10;99.90;;;;;;5039393;28;20036;-62
2022/05/09 04:45:24;;;;;;;12.15;4.35;;;7.20;99.90;;;;;;5030365;28;20127;-63
2022/05/09 04:47:50;;;;;;;14.70;4.68;;;7.20;99.90;;;;;;5031531;28;20048;-62
2022/05/09 04:50:20;;;;;;;9.73;4.50;;;7.30;99.90;;;;;;5028960;28;20053;-62
2022/05/09 04:52:45;;;;;;;13.15;4.90;;;7.30;99.90;;;;;;5031559;28;20480;-62
2022/05/09 04:55:13;;;;;;;11.85;4.68;;;7.30;99.90;;;;;;5032646;28;20080;-62
2022/05/09 04:57:39;;;;;;;11.77;4.10;;;7.40;99.90;;;;;;5038286;28;20033;-62
2022/05/09 05:00:10;;;;;;;13.57;4.88;;;7.50;99.90;;;;;;5036475;28;20483;-63
2022/05/09 05:02:36;;;;;;;10.02;4.63;;;7.50;99.90;;;;;;5038609;28;20133;-62
2022/05/09 05:05:02;;;;;;;12.73;4.68;;;7.60;99.90;;;;;;5036494;28;20350;-64
2022/05/09 05:07:28;;;;;;;14.25;4.93;;;7.70;99.90;;;;;;5045339;28;20559;-62
2022/05/09 05:09:53;;;;;;;12.98;5.18;;;7.80;99.90;;;;;;5042681;28;20135;-65
2022/05/09 05:12:19;;;;;;;11.82;4.85;;;7.90;99.90;;;;;;5036728;28;20099;-62
2022/05/09 05:14:45;;;;;;;11.63;4.60;;;8.10;99.90;;;;;;5039356;28;20180;-62
2022/05/09 05:17:11;;;;;;;12.15;4.70;;;8.20;99.90;;;;;;5042635;28;20055;-64
2022/05/09 05:19:40;;;;;;;13.45;5.30;;;8.30;99.90;;;;;;5036474;28;20152;-63
2022/05/09 05:22:07;;;;;;;14.65;6.22;;;8.40;99.90;;;;;;5039821;28;20113;-63
2022/05/09 05:24:34;;;;;;;14.18;5.30;;;8.50;99.90;;;;;;5044946;28;20037;-63
2022/05/09 05:27:00;;;;;;;13.95;5.72;;;8.60;99.90;;;;;;5043474;28;20146;-62
2022/05/09 05:29:26;;;;;;;11.50;5.25;;;8.70;99.90;;;;;;5041101;28;20061;-61
2022/05/09 05:31:51;;;;;;;13.90;5.25;;;8.80;99.90;;;;;;5034892;28;20098;-62
2022/05/09 05:34:18;;;;;;;15.32;5.32;;;8.90;99.90;;;;;;5043860;28;20055;-62
2022/05/09 05:36:43;;;;;;;14.27;5.80;;;9.00;99.90;;;;;;5048616;28;20041;-64
2022/05/09 05:39:13;;;;;;;14.80;5.60;;;9.10;99.90;;;;;;5039754;28;20112;-63
2022/05/09 05:41:39;;;;;;;14.27;5.97;;;9.20;99.90;;;;;;5040687;28;20476;-63
2022/05/09 05:44:08;;;;;;;16.63;6.32;;;9.30;99.90;;;;;;5036840;28;20059;-62
2022/05/09 05:46:34;;;;;;;15.00;5.60;;;9.40;99.90;;;;;;5038815;28;20036;-62
2022/05/09 05:49:00;;;;;;;18.77;6.45;;;9.50;99.90;;;;;;5036951;28;20106;-62
2022/05/09 05:51:26;;;;;;;13.18;5.40;;;9.60;99.90;;;;;;5045066;28;20692;-64
2022/05/09 05:53:53;;;;;;;16.90;6.18;;;9.70;99.90;;;;;;5045121;28;20088;-63
2022/05/09 05:56:19;;;;;;;12.07;6.03;;;9.80;99.90;;;;;;5045354;28;20060;-62
2022/05/09 05:58:44;;;;;;;15.15;5.65;;;10.00;99.90;;;;;;5037105;28;20045;-62
2022/05/09 06:01:10;;;;;;;15.43;6.28;;;10.10;99.90;;;;;;5034500;28;20086;-64
2022/05/09 06:03:36;;;;;;;16.85;6.20;;;10.20;99.90;;;;;;5038279;28;20055;-64
2022/05/09 06:06:01;;;;;;;18.63;6.32;;;10.30;99.90;;;;;;5036849;28;20033;-62
2022/05/09 06:08:27;;;;;;;14.32;5.68;;;10.40;99.90;;;;;;5036616;28;20143;-64
2022/05/09 06:10:53;;;;;;;14.32;5.97;;;10.50;99.90;;;;;;5037282;28;20128;-63
2022/05/09 06:13:19;;;;;;;17.67;6.47;;;10.60;99.90;;;;;;5036039;28;20047;-64
2022/05/09 06:15:45;;;;;;;15.48;6.03;;;10.70;99.90;;;;;;5034198;28;20049;-63
2022/05/09 06:18:14;;;;;;;15.90;5.85;;;10.90;99.90;;;;;;5035513;28;20325;-64
2022/05/09 06:20:43;;;;;;;14.13;5.32;;;11.00;99.90;;;;;;5040219;28;20069;-63
2022/05/09 06:23:12;;;;;;;14.80;6.10;;;11.20;99.90;;;;;;5036060;28;20056;-63
2022/05/09 06:25:37;;;;;;;16.05;6.07;;;11.30;99.90;;;;;;5034451;28;20049;-61
2022/05/09 06:28:05;;;;;;;16.45;6.10;;;11.40;99.90;;;;;;5039012;28;20399;-62
2022/05/09 06:30:31;;;;;;;12.23;5.70;;;11.40;99.90;;;;;;5035563;28;20045;-62
2022/05/09 06:32:57;;;;;;;14.80;5.85;;;11.50;99.90;;;;;;5033113;28;20043;-63
2022/05/09 06:35:25;;;;;;;18.08;5.40;;;11.60;99.90;;;;;;5040892;28;20044;-62
2022/05/09 06:37:59;;;;;;;16.77;5.63;;;11.80;99.90;;;;;;5036707;28;20037;-62
2022/05/09 06:40:26;;;;;;;17.42;6.05;;;11.90;99.90;;;;;;5044703;28;20085;-62
2022/05/09 06:42:54;;;;;;;12.60;5.50;;;12.10;99.90;;;;;;5042438;28;20057;-63
2022/05/09 06:45:20;;;;;;;16.15;5.85;;;12.20;99.90;;;;;;5042950;28;20067;-61
2022/05/09 06:47:47;;;;;;;13.52;5.38;;;12.30;99.90;;;;;;5044340;28;20484;-60
2022/05/09 06:50:14;;;;;;;16.80;5.63;;;12.30;99.90;;;;;;5030652;28;20041;-61
2022/05/09 06:52:40;;;;;;;19.10;5.80;;;12.50;99.90;;;;;;5048669;28;20093;-61
2022/05/09 06:55:06;;;;;;;13.32;5.60;;;12.60;99.90;;;;;;5049952;28;20085;-61
2022/05/09 06:57:33;;;;;;;15.27;5.63;;;12.70;99.90;;;;;;5049354;28;20045;-61
2022/05/09 06:59:58;;;;;;;13.40;5.78;;;12.80;99.90;;;;;;5041671;28;20041;-61
2022/05/09 07:02:24;;;;;;;16.42;6.25;;;13.00;99.90;;;;;;5042008;28;20060;-61
2022/05/09 07:04:49;;;;;;;12.45;4.90;;;13.10;99.90;;;;;;5049278;28;20103;-61
2022/05/09 07:07:15;;;;;;;15.20;6.03;;;13.30;99.90;;;;;;5042736;28;20041;-61
2022/05/09 07:09:40;;;;;;;16.90;5.88;;;13.50;99.90;;;;;;5043827;28;20121;-62
2022/05/09 07:12:07;;;;;;;14.98;6.00;;;13.60;99.90;;;;;;5040710;28;20124;-61
2022/05/09 07:14:32;;;;;;;12.80;5.10;;;13.70;99.90;;;;;;5034643;28;20041;-61
2022/05/09 07:16:58;;;;;;;13.82;5.60;;;13.80;99.90;;;;;;5039545;28;20037;-62
2022/05/09 07:19:24;;;;;;;14.60;5.75;;;13.90;99.90;;;;;;5040349;28;20413;-62
2022/05/09 07:21:49;;;;;;;17.35;5.88;;;14.10;99.90;;;;;;5032881;28;20090;-62
2022/05/09 07:24:15;;;;;;;18.13;5.70;;;14.20;99.90;;;;;;5033941;28;20120;-62
2022/05/09 07:26:41;;;;;;;13.40;6.03;;;14.20;99.90;;;;;;5036241;28;20064;-61
2022/05/09 07:29:09;;;;;;;10.25;4.88;;;14.30;99.90;;;;;;5034906;28;20068;-62
2022/05/09 07:31:34;;;;;;;12.95;5.50;;;14.40;99.90;;;;;;5035725;28;20080;-63
2022/05/09 07:34:00;;;;;;;14.43;5.40;;;14.50;99.90;;;;;;5038850;28;20110;-61
2022/05/09 07:36:26;;;;;;;13.52;5.35;;;14.70;99.90;;;;;;5035359;28;20053;-62
2022/05/09 07:38:52;;;;;;;14.00;5.13;;;14.70;99.90;;;;;;5036269;28;20045;-61
2022/05/09 07:41:18;;;;;;;14.35;5.20;;;14.90;99.90;;;;;;5037603;28;20127;-61
2022/05/09 07:43:43;;;;;;;13.98;5.15;;;15.00;99.90;;;;;;5039541;28;20045;-62
2022/05/09 07:46:09;;;;;;;14.88;5.57;;;15.10;99.90;;;;;;5049472;28;20115;-63
2022/05/09 07:48:34;;;;;;;13.27;5.18;;;15.20;99.90;;;;;;5047079;28;20554;-62
2022/05/09 07:51:00;;;;;;;12.88;5.25;;;15.30;99.90;;;;;;5047009;28;20041;-62
2022/05/09 07:53:32;;;;;;;12.52;5.53;;;15.50;99.90;;;;;;5041290;28;20471;-62
2022/05/09 07:55:57;;;;;;;13.48;5.32;;;15.70;99.90;;;;;;5047732;28;20047;-63
2022/05/09 07:58:23;;;;;;;14.10;5.75;;;15.80;99.90;;;;;;5041808;28;20037;-61
2022/05/09 08:00:49;;;;;;;14.25;4.47;;;15.90;99.90;;;;;;5033507;28;20129;-61
2022/05/09 08:03:17;;;;;;;14.48;5.47;;;16.00;99.90;;;;;;5038816;28;20098;-62
2022/05/09 08:05:44;;;;;;;11.60;4.95;;;16.20;99.90;;;;;;5033748;28;20131;-62
2022/05/09 08:08:10;;;;;;;13.10;4.80;;;16.20;99.90;;;;;;5032500;28;20041;-61
2022/05/09 08:10:37;;;;;;;12.95;4.80;;;16.30;99.90;;;;;;5029745;28;20048;-62
2022/05/09 08:13:07;;;;;;;13.05;4.25;;;16.40;98.90;;;;;;5034060;28;20045;-62
2022/05/09 08:15:36;;;;;;;12.88;4.57;;;16.40;98.40;;;;;;5035095;28;20052;-61
2022/05/09 08:18:03;;;;;;;11.13;4.20;;;16.50;97.80;;;;;;5035023;28;20037;-63
2022/05/09 08:20:30;;;;;;;9.93;4.30;;;16.60;97.40;;;;;;5031580;28;20041;-62
2022/05/09 08:23:07;;;;;;;11.20;4.28;;;16.70;97.80;;;;;;5035608;28;20125;-62
2022/05/09 08:25:34;;;;;;;14.27;4.60;;;16.90;98.40;;;;;;5033727;28;20060;-61
2022/05/09 08:28:02;;;;;;;18.90;5.03;;;17.10;97.80;;;;;;5036255;28;20041;-61
2022/05/09 08:30:32;;;;;;;16.15;4.47;;;17.20;96.30;;;;;;5035131;28;20432;-62
2022/05/09 08:32:59;;;;;;;13.07;4.45;;;17.30;95.60;;;;;;5032916;28;20379;-62
2022/05/09 08:35:25;;;;;;;12.57;4.00;;;17.40;95.00;;;;;;5035500;28;20037;-62
2022/05/09 08:37:51;;;;;;;10.13;3.88;;;17.60;94.30;;;;;;5033222;28;20049;-60
2022/05/09 08:40:23;;;;;;;11.73;3.78;;;17.70;94.20;;;;;;5050713;28;20044;-62
2022/05/09 08:42:58;;;;;;;13.10;3.63;;;17.80;93.50;;;;;;5043725;28;20052;-61
2022/05/09 08:45:36;;;;;;;12.98;3.65;;;17.90;80.90;;;;;;5043128;28;20392;-62
2022/05/09 08:48:25;;;;;;;8.98;3.50;;;17.90;85.60;;;;;;5051234;28;20128;-62
2022/05/09 08:51:04;;;;;;;12.05;4.07;;;18.10;85.10;;;;;;5053613;28;20182;-61
2022/05/09 08:53:36;;;;;;;9.68;2.85;;;18.20;88.10;;;;;;5041538;28;20128;-62
2022/05/09 08:56:02;;;;;;;9.98;2.80;;;18.30;88.50;;;;;;5038548;28;20167;-62
2022/05/09 08:58:45;;;;;;;9.55;2.75;;;18.50;84.20;;;;;;5052403;28;20317;-64
2022/05/09 09:01:13;;;;;;;10.65;2.95;;;18.60;77.30;;;;;;5036748;28;20041;-63
2022/05/09 09:03:43;;;;;;;11.20;3.13;;;18.60;78.60;;;;;;5038649;28;20045;-61
2022/05/09 09:06:17;;;;;;;10.85;3.40;;;18.70;77.00;;;;;;5049550;28;20041;-62
2022/05/09 09:08:58;;;;;;;10.68;3.58;;;18.80;71.70;;;;;;5044021;28;20049;-62
2022/05/09 09:11:45;;;;;;;13.20;3.10;;;18.70;68.40;;;;;;5035943;28;20044;-61
2022/05/09 09:14:24;;;;;;;9.80;2.72;;;18.80;70.10;;;;;;5048806;28;20041;-62
2022/05/09 09:17:14;;;;;;;8.98;2.70;;;18.90;69.80;;;;;;5051456;28;20063;-62
2022/05/09 09:20:09;;;;;;;8.73;2.67;;;18.90;68.10;;;;;;5043997;28;20041;-62
2022/05/09 09:22:59;;;;;;;9.93;2.60;;;19.00;67.80;;;;;;5038521;28;20100;-61
2022/05/09 09:25:42;;;;;;;10.65;3.08;;;19.10;65.60;;;;;;5048361;28;20118;-61
2022/05/09 09:28:16;;;;;;;8.52;2.42;;;19.20;66.40;;;;;;5040082;28;20053;-63
2022/05/09 09:30:43;;;;;;;8.55;2.50;;;19.30;65.50;;;;;;5052729;28;20128;-63
2022/05/09 09:33:12;;;;;;;9.85;2.30;;;19.30;63.80;;;;;;5048835;28;20068;-62
2022/05/09 09:35:48;;;;;;;10.60;2.75;;;19.40;62.20;;;;;;5042247;28;20376;-63
2022/05/09 09:38:41;;;;;;;7.88;2.35;;;19.40;59.00;;;;;;5030030;28;20110;-63
2022/05/09 09:41:33;;;;;;;8.90;2.72;;;19.40;59.90;;;;;;5051184;28;20051;-63
2022/05/09 09:44:19;;;;;;;6.88;2.42;;;19.60;60.90;;;;;;5036365;28;20128;-63
2022/05/09 09:47:08;;;;;;;10.88;2.33;;;19.60;59.80;;;;;;5030203;28;20622;-61
2022/05/09 09:49:40;;;;;;;8.18;2.67;;;19.70;58.80;;;;;;5048197;28;20482;-62
2022/05/09 09:52:28;;;;;;;6.88;2.47;;;19.70;60.50;;;;;;5045716;28;20460;-62
2022/05/09 09:55:17;;;;;;;10.20;3.03;;;19.70;60.30;;;;;;5038497;28;20045;-62
2022/05/09 09:57:44;;;;;;;7.95;2.58;;;19.70;59.30;;;;;;5042052;28;20045;-63
2022/05/09 10:00:26;;;;;;;8.20;2.72;;;19.80;60.40;;;;;;5047547;28;20045;-61
2022/05/09 10:02:53;;;;;;;9.07;2.78;;;19.90;60.70;;;;;;5048995;28;20093;-62
2022/05/09 10:05:31;;;;;;;8.90;2.88;;;20.00;61.60;;;;;;5049304;28;20061;-62
2022/05/09 10:07:57;;;;;;;8.65;3.13;;;20.10;60.90;;;;;;5048141;28;20045;-62
2022/05/09 10:10:25;;;;;;;9.48;2.97;;;20.20;59.20;;;;;;5045486;28;20094;-62
2022/05/09 10:12:58;;;;;;;9.10;2.60;;;20.20;58.30;;;;;;5044661;28;20453;-62
2022/05/09 10:15:29;;;;;;;8.23;2.78;;;20.20;57.70;;;;;;5047430;28;20045;-63
2022/05/09 10:17:56;;;;;;;10.43;2.53;;;20.20;58.10;;;;;;5036429;28;20507;-63
2022/05/09 10:20:32;;;;;;;8.18;2.88;;;20.20;58.40;;;;;;5048865;28;20128;-62
2022/05/09 10:26:02;;;;;;;10.82;3.47;;;20.30;56.40;;;;;;5049043;28;20243;-62
2022/05/09 10:28:31;;;;;;;9.40;3.00;;;20.20;55.10;;;;;;5047593;28;20049;-64
2022/05/09 10:31:08;;;;;;;11.35;2.92;;;20.40;57.10;;;;;;5041319;28;20051;-63
2022/05/09 10:33:43;;;;;;;6.25;2.33;;;20.50;57.00;;;;;;5047085;28;20044;-62
2022/05/09 10:36:23;;;;;;;8.77;2.85;;;20.60;57.40;;;;;;5047621;28;20056;-63
2022/05/09 10:39:03;;;;;;;8.02;2.10;;;20.70;57.80;;;;;;5048331;28;20041;-63
2022/05/09 10:41:37;;;;;;;8.18;2.40;;;20.70;57.70;;;;;;5048790;28;20111;-62
2022/05/09 10:44:34;;;;;;;7.93;2.53;;;20.70;55.90;;;;;;5049382;28;20052;-63
2022/05/09 10:47:21;;;;;;;7.72;2.45;;;20.80;55.50;;;;;;5044489;28;20677;-63
2022/05/09 10:50:09;;;;;;;8.65;2.60;;;20.80;55.20;;;;;;5037068;28;20045;-62
2022/05/09 10:53:03;;;;;;;7.28;2.60;;;20.80;54.60;;;;;;5029781;28;20064;-63
2022/05/09 10:55:44;;;;;;;7.68;2.50;;;20.80;54.40;;;;;;5023830;28;20046;-62
2022/05/09 10:58:24;;;;;;;7.93;2.30;;;20.90;55.60;;;;;;5046960;28;20037;-63
2022/05/09 11:00:56;;;;;;;9.82;2.30;;;21.00;55.50;;;;;;5032798;28;20517;-62
2022/05/09 11:03:26;;;;;;;6.38;2.55;;;21.10;55.00;;;;;;5045237;28;20041;-63
2022/05/09 11:06:10;;;;;;;7.47;2.65;;;21.20;54.70;;;;;;5045344;28;20095;-62
2022/05/09 11:08:41;;;;;;;9.63;2.77;;;21.30;55.20;;;;;;5047844;28;20043;-64
2022/05/09 11:11:30;;;;;;;9.52;2.50;;;21.30;56.00;;;;;;5047820;28;20335;-64
2022/05/09 11:14:13;;;;;;;9.57;2.78;;;21.40;54.80;;;;;;5049048;28;20128;-61
2022/05/09 11:17:02;;;;;;;9.52;3.35;;;21.40;54.30;;;;;;5040194;28;20064;-62
2022/05/09 11:20:05;;;;;;;7.60;3.03;;;21.40;53.20;;;;;;5035866;28;20046;-62
2022/05/09 11:23:09;;;;;;;6.20;2.85;;;21.00;51.40;;;;;;5028846;28;20055;-62
2022/05/09 11:25:47;;;;;;;9.93;2.85;;;21.00;53.10;;;;;;5037393;28;20146;-61
2022/05/09 11:28:48;;;;;;;8.65;2.88;;;21.20;53.90;;;;;;5047561;28;20041;-62
2022/05/09 11:31:52;;;;;;;10.18;2.63;;;21.30;53.20;;;;;;5043441;28;20118;-63
2022/05/09 11:34:53;;;;;;;8.15;3.17;;;21.40;52.00;;;;;;5043416;28;20045;-62
2022/05/09 11:37:24;;;;;;;10.02;3.10;;;21.50;52.70;;;;;;5046666;28;20048;-62
2022/05/09 11:40:16;;;;;;;9.20;3.05;;;21.50;52.60;;;;;;5047952;28;20187;-62
2022/05/09 11:45:58;;;;;;;9.48;3.45;;;21.60;53.30;;;;;;5047848;28;20060;-62
2022/05/09 11:48:52;;;;;;;7.40;2.60;;;21.70;53.70;;;;;;5045866;28;20116;-62
2022/05/09 11:51:42;;;;;;;7.25;2.90;;;21.70;54.30;;;;;;5043660;28;20041;-63
2022/05/09 11:54:13;;;;;;;10.20;2.88;;;21.90;55.20;;;;;;5040457;28;20064;-62
2022/05/09 11:56:52;;;;;;;38.92;5.82;;;22.10;54.40;;;;;;5042386;28;20131;-62
2022/05/09 11:59:24;;;;;;;9.40;3.25;;;22.00;53.20;;;;;;5040424;28;20375;-63
2022/05/09 12:01:55;;;;;;;8.85;2.97;;;22.10;52.40;;;;;;5044409;28;20120;-63
2022/05/09 12:04:46;;;;;;;9.88;2.95;;;22.10;52.70;;;;;;5036566;28;20140;-63
2022/05/09 12:07:21;;;;;;;6.22;2.60;;;22.20;52.30;;;;;;5027438;28;20111;-61
2022/05/09 12:09:54;;;;;;;;;;;22.20;51.90;;;;;;5030421;28;20108;-62
2022/05/09 12:12:38;;;;;;;7.78;2.03;;;22.30;51.20;;;;;;5038927;28;20054;-61
2022/05/09 12:15:15;;;;;;;7.15;2.40;;;22.40;51.10;;;;;;5031792;28;20049;-62
2022/05/09 12:17:48;;;;;;;8.27;2.63;;;22.30;49.90;;;;;;5032766;28;20446;-61
2022/05/09 12:20:37;;;;;;;6.85;2.10;;;22.40;51.20;;;;;;5041696;28;20029;-62
2022/05/09 12:23:09;;;;;;;7.40;2.20;;;22.50;49.30;;;;;;5026352;28;20056;-63
2022/05/09 12:25:40;;;;;;;7.13;2.50;;;22.50;51.60;;;;;;5038967;28;20045;-61
2022/05/09 12:28:18;;;;;;;10.77;2.83;;;22.60;51.40;;;;;;5032860;28;20087;-61
2022/05/09 12:30:48;;;;;;;8.40;2.47;;;22.60;51.20;;;;;;5043619;28;20063;-62
2022/05/09 12:33:45;;;;;;;7.13;2.38;;;22.70;51.90;;;;;;5044509;28;20068;-63
2022/05/09 12:36:29;;;;;;;7.35;2.80;;;22.70;50.80;;;;;;5027121;28;20041;-63
2022/05/09 12:39:00;;;;;;;5.63;2.30;;;22.70;49.80;;;;;;5029056;28;20183;-62
2022/05/09 12:41:31;;;;;;;8.38;2.42;;;22.70;50.10;;;;;;5028553;28;20042;-63
2022/05/09 12:44:07;;;;;;;7.57;2.50;;;22.60;48.70;;;;;;5032506;28;20041;-62
2022/05/09 12:46:40;;;;;;;7.85;2.50;;;22.80;50.50;;;;;;5047948;28;20082;-61
2022/05/09 12:49:08;;;;;;;7.93;2.78;;;22.90;49.50;;;;;;5043025;28;20038;-62
2022/05/09 12:51:50;;;;;;;10.50;2.90;;;22.90;48.30;;;;;;5046636;28;20435;-61
2022/05/09 12:54:21;;;;;;;9.32;2.75;;;22.80;48.00;;;;;;5037207;28;20059;-61
2022/05/09 12:56:59;;;;;;;7.40;2.90;;;22.90;48.30;;;;;;5028474;28;20441;-61
2022/05/09 12:59:26;;;;;;;7.43;2.90;;;22.90;48.40;;;;;;5040947;28;20387;-61
2022/05/09 13:01:58;;;;;;;8.90;3.00;;;22.80;48.60;;;;;;5044374;28;20080;-61
2022/05/09 13:04:26;;;;;;;8.00;2.78;;;22.90;49.10;;;;;;5042402;28;20072;-61
2022/05/09 13:07:00;;;;;;;8.20;3.00;;;23.00;49.70;;;;;;5024521;28;20045;-61
2022/05/09 13:09:29;;;;;;;7.70;2.50;;;23.10;49.10;;;;;;5037896;28;20439;-62
2022/05/09 13:12:03;;;;;;;8.07;3.20;;;23.20;49.50;;;;;;5043888;28;20094;-60
2022/05/09 13:14:33;;;;;;;8.88;2.85;;;23.30;50.00;;;;;;5046702;28;20041;-62
2022/05/09 13:17:03;;;;;;;6.90;2.55;;;23.40;50.10;;;;;;5045203;28;20413;-62